sensor_id;sensor_type;location;lat;lon;timestamp;temperature;humidity
3705;DHT22;1868;48.918;9.438;2023-02-18T00:01:41;12.90;97.40
3705;DHT22;1868;48.918;9.438;2023-02-18T00:04:10;12.90;97.40
3705;DHT22;1868;48.918;9.438;2023-02-18T00:06:39;12.90;97.40
3705;DHT22;1868;48.918;9.438;2023-02-18T00:09:07;12.90;97.40
3705;DHT22;1868;48.918;9.438;2023-02-18T00:11:37;12.90;97.40
3705;DHT22;1868;48.918;9.438;2023-02-18T00:14:07;12.90;97.40
3705;DHT22;1868;48.918;9.438;2023-02-18T00:16:44;12.90;97.40
3705;DHT22;1868;48.918;9.438;2023-02-18T00:19:38;12.90;97.40
3705;DHT22;1868;48.918;9.438;2023-02-18T00:22:09;12.90;97.40
3705;DHT22;1868;48.918;9.438;2023-02-18T00:24:54;12.80;97.40
3705;DHT22;1868;48.918;9.438;2023-02-18T00:27:22;12.80;97.40
3705;DHT22;1868;48.918;9.438;2023-02-18T00:29:51;12.80;97.40
3705;DHT22;1868;48.918;9.438;2023-02-18T00:32:19;12.80;97.40
3705;DHT22;1868;48.918;9.438;2023-02-18T00:34:49;12.80;97.40
3705;DHT22;1868;48.918;9.438;2023-02-18T00:37:17;12.80;97.40
3705;DHT22;1868;48.918;9.438;2023-02-18T00:39:46;12.80;97.40
3705;DHT22;1868;48.918;9.438;2023-02-18T00:42:14;12.80;97.40
3705;DHT22;1868;48.918;9.438;2023-02-18T00:44:42;12.80;97.40
3705;DHT22;1868;48.918;9.438;2023-02-18T00:47:10;12.80;97.40
3705;DHT22;1868;48.918;9.438;2023-02-18T00:49:40;12.80;97.40
3705;DHT22;1868;48.918;9.438;2023-02-18T00:52:10;12.80;97.40
3705;DHT22;1868;48.918;9.438;2023-02-18T00:54:39;12.80;97.40
3705;DHT22;1868;48.918;9.438;2023-02-18T00:57:08;12.80;97.40
3705;DHT22;1868;48.918;9.438;2023-02-18T00:59:36;12.80;97.40
3705;DHT22;1868;48.918;9.438;2023-02-18T01:02:04;12.70;97.40
3705;DHT22;1868;48.918;9.438;2023-02-18T01:04:33;12.70;97.40
3705;DHT22;1868;48.918;9.438;2023-02-18T01:07:01;12.70;97.40
3705;DHT22;1868;48.918;9.438;2023-02-18T01:09:34;12.70;97.40
3705;DHT22;1868;48.918;9.438;2023-02-18T01:12:02;12.70;97.40
3705;DHT22;1868;48.918;9.438;2023-02-18T01:14:31;12.70;97.40
3705;DHT22;1868;48.918;9.438;2023-02-18T01:16:59;12.70;97.40
3705;DHT22;1868;48.918;9.438;2023-02-18T01:19:43;12.70;97.40
3705;DHT22;1868;48.918;9.438;2023-02-18T01:22:11;12.70;97.40
3705;DHT22;1868;48.918;9.438;2023-02-18T01:24:42;12.70;97.40
3705;DHT22;1868;48.918;9.438;2023-02-18T01:27:14;12.70;97.40
3705;DHT22;1868;48.918;9.438;2023-02-18T01:29:42;12.60;97.40
3705;DHT22;1868;48.918;9.438;2023-02-18T01:32:10;12.60;97.40
3705;DHT22;1868;48.918;9.438;2023-02-18T01:34:40;12.60;97.40
3705;DHT22;1868;48.918;9.438;2023-02-18T01:37:08;12.60;97.40
3705;DHT22;1868;48.918;9.438;2023-02-18T01:39:36;12.60;97.40
3705;DHT22;1868;48.918;9.438;2023-02-18T01:42:11;12.50;97.40
3705;DHT22;1868;48.918;9.438;2023-02-18T01:44:45;12.60;97.40
3705;DHT22;1868;48.918;9.438;2023-02-18T01:47:16;12.60;97.40
3705;DHT22;1868;48.918;9.438;2023-02-18T01:49:47;12.50;97.40
3705;DHT22;1868;48.918;9.438;2023-02-18T01:52:19;12.60;97.40
3705;DHT22;1868;48.918;9.438;2023-02-18T01:54:52;12.60;97.40
3705;DHT22;1868;48.918;9.438;2023-02-18T01:57:31;12.60;97.40
3705;DHT22;1868;48.918;9.438;2023-02-18T02:00:05;12.60;97.40
3705;DHT22;1868;48.918;9.438;2023-02-18T02:02:43;12.60;97.40
3705;DHT22;1868;48.918;9.438;2023-02-18T02:05:13;12.60;97.40
3705;DHT22;1868;48.918;9.438;2023-02-18T02:07:44;12.60;97.40
3705;DHT22;1868;48.918;9.438;2023-02-18T02:10:13;12.60;97.40
3705;DHT22;1868;48.918;9.438;2023-02-18T02:12:52;12.60;97.40
3705;DHT22;1868;48.918;9.438;2023-02-18T02:15:37;12.60;97.40
3705;DHT22;1868;48.918;9.438;2023-02-18T02:18:19;12.60;97.40
3705;DHT22;1868;48.918;9.438;2023-02-18T02:31:17;12.60;97.40
3705;DHT22;1868;48.918;9.438;2023-02-18T02:34:36;12.50;97.40
3705;DHT22;1868;48.918;9.438;2023-02-18T02:37:15;12.50;97.40
3705;DHT22;1868;48.918;9.438;2023-02-18T02:40:00;12.50;97.40
3705;DHT22;1868;48.918;9.438;2023-02-18T02:42:43;12.50;97.40
3705;DHT22;1868;48.918;9.438;2023-02-18T02:45:21;12.50;97.40
3705;DHT22;1868;48.918;9.438;2023-02-18T02:47:58;12.60;97.40
3705;DHT22;1868;48.918;9.438;2023-02-18T02:50:37;12.60;97.40
3705;DHT22;1868;48.918;9.438;2023-02-18T02:53:13;12.60;97.40
3705;DHT22;1868;48.918;9.438;2023-02-18T02:55:46;12.60;97.40
3705;DHT22;1868;48.918;9.438;2023-02-18T02:58:18;12.60;97.40
3705;DHT22;1868;48.918;9.438;2023-02-18T03:00:58;12.60;97.40
3705;DHT22;1868;48.918;9.438;2023-02-18T03:04:03;12.60;97.40
3705;DHT22;1868;48.918;9.438;2023-02-18T03:06:56;12.60;97.40
3705;DHT22;1868;48.918;9.438;2023-02-18T03:09:46;12.60;97.40
3705;DHT22;1868;48.918;9.438;2023-02-18T03:12:32;12.60;97.40
3705;DHT22;1868;48.918;9.438;2023-02-18T03:15:07;12.50;97.40
3705;DHT22;1868;48.918;9.438;2023-02-18T03:17:47;12.50;97.40
3705;DHT22;1868;48.918;9.438;2023-02-18T03:20:24;12.50;97.40
3705;DHT22;1868;48.918;9.438;2023-02-18T03:22:57;12.50;97.40
3705;DHT22;1868;48.918;9.438;2023-02-18T03:25:27;12.50;97.40
3705;DHT22;1868;48.918;9.438;2023-02-18T03:28:01;12.60;97.40
3705;DHT22;1868;48.918;9.438;2023-02-18T03:30:38;12.50;97.40
3705;DHT22;1868;48.918;9.438;2023-02-18T03:33:11;12.50;97.40
3705;DHT22;1868;48.918;9.438;2023-02-18T03:35:43;12.50;97.40
3705;DHT22;1868;48.918;9.438;2023-02-18T03:38:20;12.50;97.40
3705;DHT22;1868;48.918;9.438;2023-02-18T03:40:51;12.50;97.40
3705;DHT22;1868;48.918;9.438;2023-02-18T03:43:20;12.50;97.40
3705;DHT22;1868;48.918;9.438;2023-02-18T03:45:48;12.40;97.40
3705;DHT22;1868;48.918;9.438;2023-02-18T03:48:18;12.40;97.40
3705;DHT22;1868;48.918;9.438;2023-02-18T03:50:46;12.40;97.40
3705;DHT22;1868;48.918;9.438;2023-02-18T03:53:15;12.40;97.40
3705;DHT22;1868;48.918;9.438;2023-02-18T03:55:44;12.30;97.40
3705;DHT22;1868;48.918;9.438;2023-02-18T03:58:12;12.40;97.40
3705;DHT22;1868;48.918;9.438;2023-02-18T04:00:40;12.30;97.40
3705;DHT22;1868;48.918;9.438;2023-02-18T04:03:08;12.30;97.40
3705;DHT22;1868;48.918;9.438;2023-02-18T04:05:36;12.30;97.40
3705;DHT22;1868;48.918;9.438;2023-02-18T04:08:05;12.30;97.40
3705;DHT22;1868;48.918;9.438;2023-02-18T04:10:34;12.30;97.40
3705;DHT22;1868;48.918;9.438;2023-02-18T04:13:03;12.30;97.40
3705;DHT22;1868;48.918;9.438;2023-02-18T04:15:31;12.30;97.40
3705;DHT22;1868;48.918;9.438;2023-02-18T04:18:00;12.20;97.40
3705;DHT22;1868;48.918;9.438;2023-02-18T04:20:28;12.20;97.40
3705;DHT22;1868;48.918;9.438;2023-02-18T04:22:57;12.20;97.40
3705;DHT22;1868;48.918;9.438;2023-02-18T04:25:25;12.20;97.40
3705;DHT22;1868;48.918;9.438;2023-02-18T04:27:55;12.20;97.40
3705;DHT22;1868;48.918;9.438;2023-02-18T04:30:23;12.20;97.40
3705;DHT22;1868;48.918;9.438;2023-02-18T04:32:56;12.20;97.40
3705;DHT22;1868;48.918;9.438;2023-02-18T04:35:25;12.10;97.40
3705;DHT22;1868;48.918;9.438;2023-02-18T04:37:53;12.10;97.40
3705;DHT22;1868;48.918;9.438;2023-02-18T04:40:21;12.10;97.40
3705;DHT22;1868;48.918;9.438;2023-02-18T04:42:51;12.10;97.40
3705;DHT22;1868;48.918;9.438;2023-02-18T04:45:20;12.10;97.40
3705;DHT22;1868;48.918;9.438;2023-02-18T04:47:49;12.10;97.40
3705;DHT22;1868;48.918;9.438;2023-02-18T04:50:17;12.10;97.40
3705;DHT22;1868;48.918;9.438;2023-02-18T04:52:46;12.10;97.40
3705;DHT22;1868;48.918;9.438;2023-02-18T04:55:14;12.10;97.40
3705;DHT22;1868;48.918;9.438;2023-02-18T04:57:43;12.10;97.40
3705;DHT22;1868;48.918;9.438;2023-02-18T05:00:14;12.10;97.40
3705;DHT22;1868;48.918;9.438;2023-02-18T05:02:45;12.10;97.40
3705;DHT22;1868;48.918;9.438;2023-02-18T05:05:14;12.10;97.40
3705;DHT22;1868;48.918;9.438;2023-02-18T05:07:43;12.00;97.40
3705;DHT22;1868;48.918;9.438;2023-02-18T05:10:14;12.00;97.40
3705;DHT22;1868;48.918;9.438;2023-02-18T05:12:43;12.00;97.40
3705;DHT22;1868;48.918;9.438;2023-02-18T05:15:11;12.00;97.40
3705;DHT22;1868;48.918;9.438;2023-02-18T05:17:41;12.00;97.40
3705;DHT22;1868;48.918;9.438;2023-02-18T05:20:11;12.00;97.40
3705;DHT22;1868;48.918;9.438;2023-02-18T05:22:40;12.00;97.40
3705;DHT22;1868;48.918;9.438;2023-02-18T05:25:09;12.00;97.40
3705;DHT22;1868;48.918;9.438;2023-02-18T05:27:37;11.90;97.40
3705;DHT22;1868;48.918;9.438;2023-02-18T05:30:06;12.00;97.40
3705;DHT22;1868;48.918;9.438;2023-02-18T05:32:35;11.90;97.40
3705;DHT22;1868;48.918;9.438;2023-02-18T05:35:04;11.90;97.40
3705;DHT22;1868;48.918;9.438;2023-02-18T05:37:34;11.90;97.40
3705;DHT22;1868;48.918;9.438;2023-02-18T05:40:03;11.90;97.40
3705;DHT22;1868;48.918;9.438;2023-02-18T05:42:33;11.90;97.40
3705;DHT22;1868;48.918;9.438;2023-02-18T05:45:01;11.90;97.40
3705;DHT22;1868;48.918;9.438;2023-02-18T05:47:29;11.80;97.40
3705;DHT22;1868;48.918;9.438;2023-02-18T05:49:58;11.80;97.40
3705;DHT22;1868;48.918;9.438;2023-02-18T05:52:26;11.80;97.40
3705;DHT22;1868;48.918;9.438;2023-02-18T05:54:56;11.80;97.40
3705;DHT22;1868;48.918;9.438;2023-02-18T05:57:24;11.80;97.40
3705;DHT22;1868;48.918;9.438;2023-02-18T05:59:53;11.80;97.40
3705;DHT22;1868;48.918;9.438;2023-02-18T06:02:21;11.70;97.40
3705;DHT22;1868;48.918;9.438;2023-02-18T06:04:49;11.70;97.40
3705;DHT22;1868;48.918;9.438;2023-02-18T06:07:18;11.70;97.40
3705;DHT22;1868;48.918;9.438;2023-02-18T06:09:46;11.70;97.40
3705;DHT22;1868;48.918;9.438;2023-02-18T06:12:16;11.70;97.40
3705;DHT22;1868;48.918;9.438;2023-02-18T06:14:44;11.70;97.40
3705;DHT22;1868;48.918;9.438;2023-02-18T06:17:14;11.70;97.40
3705;DHT22;1868;48.918;9.438;2023-02-18T06:19:44;11.70;97.40
3705;DHT22;1868;48.918;9.438;2023-02-18T06:22:13;11.70;97.40
3705;DHT22;1868;48.918;9.438;2023-02-18T06:24:41;11.70;97.40
3705;DHT22;1868;48.918;9.438;2023-02-18T06:27:10;11.70;97.40
3705;DHT22;1868;48.918;9.438;2023-02-18T06:29:39;11.60;97.40
3705;DHT22;1868;48.918;9.438;2023-02-18T06:32:08;11.60;97.40
3705;DHT22;1868;48.918;9.438;2023-02-18T06:34:36;11.60;97.40
3705;DHT22;1868;48.918;9.438;2023-02-18T06:37:04;11.60;97.40
3705;DHT22;1868;48.918;9.438;2023-02-18T06:39:33;11.70;97.40
3705;DHT22;1868;48.918;9.438;2023-02-18T06:42:01;11.60;97.40
3705;DHT22;1868;48.918;9.438;2023-02-18T06:44:29;11.50;97.40
3705;DHT22;1868;48.918;9.438;2023-02-18T06:46:59;11.50;97.40
3705;DHT22;1868;48.918;9.438;2023-02-18T06:49:27;11.60;97.40
3705;DHT22;1868;48.918;9.438;2023-02-18T06:51:56;11.50;97.40
3705;DHT22;1868;48.918;9.438;2023-02-18T06:54:24;11.50;97.40
3705;DHT22;1868;48.918;9.438;2023-02-18T06:56:52;11.50;97.40
3705;DHT22;1868;48.918;9.438;2023-02-18T06:59:20;11.50;97.40
3705;DHT22;1868;48.918;9.438;2023-02-18T07:01:49;11.50;97.40
3705;DHT22;1868;48.918;9.438;2023-02-18T07:04:18;11.60;97.40
3705;DHT22;1868;48.918;9.438;2023-02-18T07:06:47;11.50;97.40
3705;DHT22;1868;48.918;9.438;2023-02-18T07:09:15;11.60;97.40
3705;DHT22;1868;48.918;9.438;2023-02-18T07:11:43;11.60;97.40
3705;DHT22;1868;48.918;9.438;2023-02-18T07:14:14;11.60;97.40
3705;DHT22;1868;48.918;9.438;2023-02-18T07:16:42;11.60;97.40
3705;DHT22;1868;48.918;9.438;2023-02-18T07:19:10;11.60;97.40
3705;DHT22;1868;48.918;9.438;2023-02-18T07:21:42;11.70;97.40
3705;DHT22;1868;48.918;9.438;2023-02-18T07:24:10;11.70;97.40
3705;DHT22;1868;48.918;9.438;2023-02-18T07:26:38;11.70;97.40
3705;DHT22;1868;48.918;9.438;2023-02-18T07:29:07;11.70;97.40
3705;DHT22;1868;48.918;9.438;2023-02-18T07:31:36;11.80;97.40
3705;DHT22;1868;48.918;9.438;2023-02-18T07:34:04;11.80;97.40
3705;DHT22;1868;48.918;9.438;2023-02-18T07:36:33;11.80;97.40
3705;DHT22;1868;48.918;9.438;2023-02-18T07:39:03;11.80;97.40
3705;DHT22;1868;48.918;9.438;2023-02-18T07:41:31;11.90;97.40
3705;DHT22;1868;48.918;9.438;2023-02-18T07:43:59;11.90;97.40
3705;DHT22;1868;48.918;9.438;2023-02-18T07:46:28;12.00;97.40
3705;DHT22;1868;48.918;9.438;2023-02-18T07:48:56;12.00;97.40
3705;DHT22;1868;48.918;9.438;2023-02-18T07:51:25;12.10;97.40
3705;DHT22;1868;48.918;9.438;2023-02-18T07:53:54;12.10;97.40
3705;DHT22;1868;48.918;9.438;2023-02-18T07:56:23;12.10;97.40
3705;DHT22;1868;48.918;9.438;2023-02-18T07:58:52;12.20;97.40
3705;DHT22;1868;48.918;9.438;2023-02-18T08:01:20;12.20;97.40
3705;DHT22;1868;48.918;9.438;2023-02-18T08:03:48;12.30;97.40
3705;DHT22;1868;48.918;9.438;2023-02-18T08:06:20;12.30;97.40
3705;DHT22;1868;48.918;9.438;2023-02-18T08:08:52;12.40;97.40
3705;DHT22;1868;48.918;9.438;2023-02-18T08:11:20;12.40;97.40
3705;DHT22;1868;48.918;9.438;2023-02-18T08:13:50;12.60;97.40
3705;DHT22;1868;48.918;9.438;2023-02-18T08:16:20;12.60;97.40
3705;DHT22;1868;48.918;9.438;2023-02-18T08:18:49;12.70;97.40
3705;DHT22;1868;48.918;9.438;2023-02-18T08:21:19;12.80;97.40
3705;DHT22;1868;48.918;9.438;2023-02-18T08:23:50;12.80;97.40
3705;DHT22;1868;48.918;9.438;2023-02-18T08:26:19;12.80;97.40
3705;DHT22;1868;48.918;9.438;2023-02-18T08:28:49;12.90;97.40
3705;DHT22;1868;48.918;9.438;2023-02-18T08:31:19;12.90;97.40
3705;DHT22;1868;48.918;9.438;2023-02-18T08:33:49;13.10;97.40
3705;DHT22;1868;48.918;9.438;2023-02-18T08:36:18;13.20;97.40
3705;DHT22;1868;48.918;9.438;2023-02-18T08:38:47;13.40;97.40
3705;DHT22;1868;48.918;9.438;2023-02-18T08:41:15;13.70;97.40
3705;DHT22;1868;48.918;9.438;2023-02-18T08:43:45;13.90;97.40
3705;DHT22;1868;48.918;9.438;2023-02-18T08:46:16;14.00;97.40
3705;DHT22;1868;48.918;9.438;2023-02-18T08:48:58;14.20;97.40
3705;DHT22;1868;48.918;9.438;2023-02-18T08:51:27;14.70;97.40
3705;DHT22;1868;48.918;9.438;2023-02-18T08:53:55;14.90;97.40
3705;DHT22;1868;48.918;9.438;2023-02-18T08:56:24;15.00;97.40
3705;DHT22;1868;48.918;9.438;2023-02-18T08:58:52;14.90;97.40
3705;DHT22;1868;48.918;9.438;2023-02-18T09:01:22;14.90;97.40
3705;DHT22;1868;48.918;9.438;2023-02-18T09:04:08;14.90;97.40
3705;DHT22;1868;48.918;9.438;2023-02-18T09:06:39;14.80;97.40
3705;DHT22;1868;48.918;9.438;2023-02-18T09:09:13;14.80;97.40
3705;DHT22;1868;48.918;9.438;2023-02-18T09:11:42;15.00;97.40
3705;DHT22;1868;48.918;9.438;2023-02-18T09:14:10;15.30;97.40
3705;DHT22;1868;48.918;9.438;2023-02-18T09:16:41;15.40;97.40
3705;DHT22;1868;48.918;9.438;2023-02-18T09:19:10;15.30;97.40
3705;DHT22;1868;48.918;9.438;2023-02-18T09:21:38;15.30;97.40
3705;DHT22;1868;48.918;9.438;2023-02-18T09:24:06;15.30;97.40
3705;DHT22;1868;48.918;9.438;2023-02-18T09:26:35;15.20;97.40
3705;DHT22;1868;48.918;9.438;2023-02-18T09:29:03;15.40;97.40
3705;DHT22;1868;48.918;9.438;2023-02-18T09:31:31;15.70;97.40
3705;DHT22;1868;48.918;9.438;2023-02-18T09:34:02;15.80;97.40
3705;DHT22;1868;48.918;9.438;2023-02-18T09:36:31;15.90;97.40
3705;DHT22;1868;48.918;9.438;2023-02-18T09:39:00;16.10;97.40
3705;DHT22;1868;48.918;9.438;2023-02-18T09:41:33;16.60;96.60
3705;DHT22;1868;48.918;9.438;2023-02-18T09:44:10;16.80;95.80
3705;DHT22;1868;48.918;9.438;2023-02-18T09:46:47;17.10;94.50
3705;DHT22;1868;48.918;9.438;2023-02-18T09:49:21;17.30;93.90
3705;DHT22;1868;48.918;9.438;2023-02-18T09:51:53;17.20;93.80
3705;DHT22;1868;48.918;9.438;2023-02-18T09:54:22;17.60;93.00
3705;DHT22;1868;48.918;9.438;2023-02-18T09:56:51;17.70;92.50
3705;DHT22;1868;48.918;9.438;2023-02-18T09:59:21;18.00;91.00
3705;DHT22;1868;48.918;9.438;2023-02-18T10:01:53;18.60;90.40
3705;DHT22;1868;48.918;9.438;2023-02-18T10:04:29;18.50;89.70
3705;DHT22;1868;48.918;9.438;2023-02-18T10:07:00;18.40;89.70
3705;DHT22;1868;48.918;9.438;2023-02-18T10:09:33;18.30;89.90
3705;DHT22;1868;48.918;9.438;2023-02-18T10:12:12;18.10;90.20
3705;DHT22;1868;48.918;9.438;2023-02-18T10:14:43;17.80;90.90
3705;DHT22;1868;48.918;9.438;2023-02-18T10:17:15;17.60;91.00
3705;DHT22;1868;48.918;9.438;2023-02-18T10:19:47;17.40;91.50
3705;DHT22;1868;48.918;9.438;2023-02-18T10:22:17;17.20;92.10
3705;DHT22;1868;48.918;9.438;2023-02-18T10:24:50;17.00;93.00
3705;DHT22;1868;48.918;9.438;2023-02-18T10:27:23;16.80;93.70
3705;DHT22;1868;48.918;9.438;2023-02-18T10:29:53;16.60;94.20
3705;DHT22;1868;48.918;9.438;2023-02-18T10:32:26;16.50;94.50
3705;DHT22;1868;48.918;9.438;2023-02-18T10:35:01;16.30;95.00
3705;DHT22;1868;48.918;9.438;2023-02-18T10:37:43;16.20;95.90
3705;DHT22;1868;48.918;9.438;2023-02-18T10:40:22;16.10;96.10
3705;DHT22;1868;48.918;9.438;2023-02-18T10:43:05;16.00;96.10
3705;DHT22;1868;48.918;9.438;2023-02-18T10:45:44;15.90;96.50
3705;DHT22;1868;48.918;9.438;2023-02-18T10:48:25;15.90;96.60
3705;DHT22;1868;48.918;9.438;2023-02-18T10:51:13;15.90;96.00
3705;DHT22;1868;48.918;9.438;2023-02-18T10:53:44;16.00;95.40
3705;DHT22;1868;48.918;9.438;2023-02-18T10:56:36;16.00;96.30
3705;DHT22;1868;48.918;9.438;2023-02-18T10:59:13;16.00;95.80
3705;DHT22;1868;48.918;9.438;2023-02-18T11:01:54;15.90;95.20
3705;DHT22;1868;48.918;9.438;2023-02-18T11:04:26;15.90;96.10
3705;DHT22;1868;48.918;9.438;2023-02-18T11:07:03;15.90;95.70
3705;DHT22;1868;48.918;9.438;2023-02-18T11:09:39;15.80;95.70
3705;DHT22;1868;48.918;9.438;2023-02-18T11:12:15;15.80;95.50
3705;DHT22;1868;48.918;9.438;2023-02-18T11:15:04;15.70;95.50
3705;DHT22;1868;48.918;9.438;2023-02-18T11:17:44;15.70;96.10
3705;DHT22;1868;48.918;9.438;2023-02-18T11:20:29;15.70;96.10
3705;DHT22;1868;48.918;9.438;2023-02-18T11:23:19;15.70;96.00
3705;DHT22;1868;48.918;9.438;2023-02-18T11:26:00;15.80;96.20
3705;DHT22;1868;48.918;9.438;2023-02-18T11:28:41;15.80;96.60
3705;DHT22;1868;48.918;9.438;2023-02-18T11:31:16;15.80;96.00
3705;DHT22;1868;48.918;9.438;2023-02-18T11:33:50;15.90;95.20
3705;DHT22;1868;48.918;9.438;2023-02-18T11:36:23;16.00;95.40
3705;DHT22;1868;48.918;9.438;2023-02-18T11:38:55;16.10;95.20
3705;DHT22;1868;48.918;9.438;2023-02-18T11:41:33;16.10;94.70
3705;DHT22;1868;48.918;9.438;2023-02-18T11:44:04;16.20;93.80
3705;DHT22;1868;48.918;9.438;2023-02-18T11:46:34;16.10;93.90
3705;DHT22;1868;48.918;9.438;2023-02-18T11:49:20;16.00;93.80
3705;DHT22;1868;48.918;9.438;2023-02-18T11:51:50;16.00;93.50
3705;DHT22;1868;48.918;9.438;2023-02-18T11:54:24;15.90;94.10
3705;DHT22;1868;48.918;9.438;2023-02-18T11:56:58;15.80;94.80
3705;DHT22;1868;48.918;9.438;2023-02-18T11:59:31;16.20;94.30
3705;DHT22;1868;48.918;9.438;2023-02-18T12:02:05;16.10;94.40
3705;DHT22;1868;48.918;9.438;2023-02-18T12:04:51;16.00;94.50
3705;DHT22;1868;48.918;9.438;2023-02-18T12:07:25;16.00;93.10
3705;DHT22;1868;48.918;9.438;2023-02-18T12:09:58;15.90;94.10
3705;DHT22;1868;48.918;9.438;2023-02-18T12:12:31;15.90;94.20
3705;DHT22;1868;48.918;9.438;2023-02-18T12:15:02;16.00;93.70
3705;DHT22;1868;48.918;9.438;2023-02-18T12:18:01;15.90;94.50
3705;DHT22;1868;48.918;9.438;2023-02-18T12:23:50;15.80;94.40
3705;DHT22;1868;48.918;9.438;2023-02-18T12:26:28;15.60;94.90
3705;DHT22;1868;48.918;9.438;2023-02-18T12:29:12;15.50;95.30
3705;DHT22;1868;48.918;9.438;2023-02-18T12:32:10;15.50;96.00
3705;DHT22;1868;48.918;9.438;2023-02-18T12:34:55;15.80;95.20
3705;DHT22;1868;48.918;9.438;2023-02-18T12:37:44;15.80;94.70
3705;DHT22;1868;48.918;9.438;2023-02-18T12:40:49;15.70;94.80
3705;DHT22;1868;48.918;9.438;2023-02-18T12:43:35;15.70;94.70
3705;DHT22;1868;48.918;9.438;2023-02-18T12:46:29;15.80;94.50
3705;DHT22;1868;48.918;9.438;2023-02-18T12:49:14;15.70;94.50
3705;DHT22;1868;48.918;9.438;2023-02-18T12:51:57;15.70;94.60
3705;DHT22;1868;48.918;9.438;2023-02-18T12:54:47;15.60;95.10
3705;DHT22;1868;48.918;9.438;2023-02-18T12:57:33;15.70;95.00
3705;DHT22;1868;48.918;9.438;2023-02-18T13:00:38;15.70;95.30
3705;DHT22;1868;48.918;9.438;2023-02-18T13:03:47;15.60;95.10
3705;DHT22;1868;48.918;9.438;2023-02-18T13:06:37;15.70;94.80
3705;DHT22;1868;48.918;9.438;2023-02-18T13:09:18;15.70;94.80
3705;DHT22;1868;48.918;9.438;2023-02-18T13:11:54;15.70;95.60
3705;DHT22;1868;48.918;9.438;2023-02-18T13:14:27;15.70;95.20
3705;DHT22;1868;48.918;9.438;2023-02-18T13:16:59;15.70;95.10
3705;DHT22;1868;48.918;9.438;2023-02-18T13:19:31;15.70;94.80
3705;DHT22;1868;48.918;9.438;2023-02-18T13:22:04;15.70;94.50
3705;DHT22;1868;48.918;9.438;2023-02-18T13:24:36;15.60;95.30
3705;DHT22;1868;48.918;9.438;2023-02-18T13:27:13;15.60;94.80
3705;DHT22;1868;48.918;9.438;2023-02-18T13:29:50;15.60;95.00
3705;DHT22;1868;48.918;9.438;2023-02-18T13:32:28;15.60;94.70
3705;DHT22;1868;48.918;9.438;2023-02-18T13:35:07;15.50;95.40
3705;DHT22;1868;48.918;9.438;2023-02-18T13:37:54;15.50;95.80
3705;DHT22;1868;48.918;9.438;2023-02-18T13:40:31;15.40;95.70
3705;DHT22;1868;48.918;9.438;2023-02-18T13:43:20;15.40;95.60
3705;DHT22;1868;48.918;9.438;2023-02-18T13:46:08;15.40;96.00
3705;DHT22;1868;48.918;9.438;2023-02-18T13:48:43;15.40;96.00
3705;DHT22;1868;48.918;9.438;2023-02-18T13:51:15;15.30;96.60
3705;DHT22;1868;48.918;9.438;2023-02-18T13:53:50;15.30;96.40
3705;DHT22;1868;48.918;9.438;2023-02-18T13:56:21;15.30;96.20
3705;DHT22;1868;48.918;9.438;2023-02-18T13:58:55;15.30;96.40
3705;DHT22;1868;48.918;9.438;2023-02-18T14:01:41;15.30;96.50
3705;DHT22;1868;48.918;9.438;2023-02-18T14:07:36;15.30;96.40
3705;DHT22;1868;48.918;9.438;2023-02-18T14:10:26;15.30;96.00
3705;DHT22;1868;48.918;9.438;2023-02-18T14:13:19;15.30;96.10
3705;DHT22;1868;48.918;9.438;2023-02-18T14:15:55;15.30;96.10
3705;DHT22;1868;48.918;9.438;2023-02-18T14:21:45;15.30;97.10
3705;DHT22;1868;48.918;9.438;2023-02-18T14:24:45;15.30;97.40
3705;DHT22;1868;48.918;9.438;2023-02-18T14:27:16;15.30;97.40
3705;DHT22;1868;48.918;9.438;2023-02-18T14:29:44;15.20;97.40
3705;DHT22;1868;48.918;9.438;2023-02-18T14:32:15;15.20;97.40
3705;DHT22;1868;48.918;9.438;2023-02-18T14:38:11;15.20;97.40
3705;DHT22;1868;48.918;9.438;2023-02-18T14:41:12;15.10;97.40
3705;DHT22;1868;48.918;9.438;2023-02-18T14:47:01;15.10;97.40
3705;DHT22;1868;48.918;9.438;2023-02-18T14:49:49;15.10;97.40
3705;DHT22;1868;48.918;9.438;2023-02-18T14:52:25;15.00;97.40
3705;DHT22;1868;48.918;9.438;2023-02-18T14:54:57;15.00;97.40
3705;DHT22;1868;48.918;9.438;2023-02-18T14:57:33;15.00;97.40
3705;DHT22;1868;48.918;9.438;2023-02-18T15:00:06;15.00;97.40
3705;DHT22;1868;48.918;9.438;2023-02-18T15:02:42;14.90;97.40
3705;DHT22;1868;48.918;9.438;2023-02-18T15:05:15;14.80;97.40
3705;DHT22;1868;48.918;9.438;2023-02-18T15:08:03;14.80;97.40
3705;DHT22;1868;48.918;9.438;2023-02-18T15:10:38;14.80;97.40
3705;DHT22;1868;48.918;9.438;2023-02-18T15:13:13;14.70;97.40
3705;DHT22;1868;48.918;9.438;2023-02-18T15:15:48;14.70;97.40
3705;DHT22;1868;48.918;9.438;2023-02-18T15:18:22;14.70;97.40
3705;DHT22;1868;48.918;9.438;2023-02-18T15:20:56;14.60;97.40
3705;DHT22;1868;48.918;9.438;2023-02-18T15:23:24;14.60;97.40
3705;DHT22;1868;48.918;9.438;2023-02-18T15:25:53;14.50;97.40
3705;DHT22;1868;48.918;9.438;2023-02-18T15:28:25;14.40;97.40
3705;DHT22;1868;48.918;9.438;2023-02-18T15:30:56;14.40;97.40
3705;DHT22;1868;48.918;9.438;2023-02-18T15:33:25;14.40;97.40
3705;DHT22;1868;48.918;9.438;2023-02-18T15:35:59;14.30;97.40
3705;DHT22;1868;48.918;9.438;2023-02-18T15:38:29;14.30;97.40
3705;DHT22;1868;48.918;9.438;2023-02-18T15:40:58;14.30;97.40
3705;DHT22;1868;48.918;9.438;2023-02-18T15:43:28;14.20;97.40
3705;DHT22;1868;48.918;9.438;2023-02-18T15:45:57;14.20;97.40
3705;DHT22;1868;48.918;9.438;2023-02-18T15:48:29;14.20;97.40
3705;DHT22;1868;48.918;9.438;2023-02-18T15:51:03;14.10;97.40
3705;DHT22;1868;48.918;9.438;2023-02-18T15:53:45;14.10;97.40
3705;DHT22;1868;48.918;9.438;2023-02-18T15:56:20;14.10;97.40
3705;DHT22;1868;48.918;9.438;2023-02-18T15:59:08;14.00;97.40
3705;DHT22;1868;48.918;9.438;2023-02-18T16:01:37;13.90;97.40
3705;DHT22;1868;48.918;9.438;2023-02-18T16:04:06;13.90;97.40
3705;DHT22;1868;48.918;9.438;2023-02-18T16:06:37;13.90;97.40
3705;DHT22;1868;48.918;9.438;2023-02-18T16:09:14;13.80;97.40
3705;DHT22;1868;48.918;9.438;2023-02-18T16:11:47;13.80;97.40
3705;DHT22;1868;48.918;9.438;2023-02-18T16:14:27;13.80;97.40
3705;DHT22;1868;48.918;9.438;2023-02-18T16:17:05;13.80;97.40
3705;DHT22;1868;48.918;9.438;2023-02-18T16:19:45;13.80;97.40
3705;DHT22;1868;48.918;9.438;2023-02-18T16:22:34;13.70;97.40
3705;DHT22;1868;48.918;9.438;2023-02-18T16:25:11;13.70;97.40
3705;DHT22;1868;48.918;9.438;2023-02-18T16:27:49;13.70;97.40
3705;DHT22;1868;48.918;9.438;2023-02-18T16:30:22;13.60;97.40
3705;DHT22;1868;48.918;9.438;2023-02-18T16:32:52;13.60;97.40
3705;DHT22;1868;48.918;9.438;2023-02-18T16:35:21;13.60;97.40
3705;DHT22;1868;48.918;9.438;2023-02-18T16:37:51;13.60;97.40
3705;DHT22;1868;48.918;9.438;2023-02-18T16:40:23;13.60;97.40
3705;DHT22;1868;48.918;9.438;2023-02-18T16:42:54;13.60;97.40
3705;DHT22;1868;48.918;9.438;2023-02-18T16:45:32;13.50;97.40
3705;DHT22;1868;48.918;9.438;2023-02-18T16:48:02;13.50;97.40
3705;DHT22;1868;48.918;9.438;2023-02-18T16:50:32;13.50;97.40
3705;DHT22;1868;48.918;9.438;2023-02-18T16:53:01;13.50;97.40
3705;DHT22;1868;48.918;9.438;2023-02-18T16:55:29;13.50;97.40
3705;DHT22;1868;48.918;9.438;2023-02-18T16:57:58;13.40;97.40
3705;DHT22;1868;48.918;9.438;2023-02-18T17:00:27;13.40;97.40
3705;DHT22;1868;48.918;9.438;2023-02-18T17:02:57;13.40;97.40
3705;DHT22;1868;48.918;9.438;2023-02-18T17:05:27;13.30;97.40
3705;DHT22;1868;48.918;9.438;2023-02-18T17:08:03;13.30;97.40
3705;DHT22;1868;48.918;9.438;2023-02-18T17:10:42;13.30;97.40